createdAt,value
2023-05-01T00:00:05.595Z,47.08
2023-05-01T00:02:32.542Z,47.57
2023-05-01T00:04:59.386Z,47.39
2023-05-01T00:07:29.365Z,46.75
2023-05-01T00:09:56.238Z,47.74
2023-05-01T00:12:23.535Z,47.41
2023-05-01T00:14:50.636Z,47.27
2023-05-01T00:17:17.509Z,45.27
2023-05-01T00:19:44.214Z,46.85
2023-05-01T00:22:10.860Z,45.91
2023-05-01T00:24:37.535Z,46.09
2023-05-01T00:27:04.408Z,45.79
2023-05-01T00:29:31.113Z,44.91
2023-05-01T00:31:57.873Z,45.68
2023-05-01T00:34:25.208Z,46.79
2023-05-01T00:36:52.436Z,46.66
2023-05-01T00:39:19.577Z,45.27
2023-05-01T00:41:46.193Z,45.10
2023-05-01T00:44:13.020Z,45.76
2023-05-01T00:46:39.754Z,45.09
2023-05-01T00:49:06.646Z,44.88
2023-05-01T00:51:33.785Z,45.75
2023-05-01T00:54:01.586Z,46.77
2023-05-01T00:56:29.042Z,46.74
2023-05-01T00:58:56.873Z,47.86
2023-05-01T01:01:24.280Z,47.46
2023-05-01T01:03:54.772Z,48.29
2023-05-01T01:06:33.754Z,48.06
2023-05-01T01:09:09.044Z,48.33
2023-05-01T01:11:52.099Z,48.58
2023-05-01T01:14:27.390Z,48.65
2023-05-01T01:16:59.442Z,48.78
2023-05-01T01:19:41.421Z,49.62
2023-05-01T01:22:13.580Z,49.59
2023-05-01T01:24:59.157Z,50.10
2023-05-01T01:27:35.129Z,49.47
2023-05-01T01:30:04.813Z,49.54
2023-05-01T01:33:09.345Z,50.00
2023-05-01T01:35:39.032Z,49.59
2023-05-01T01:38:20.760Z,49.76
2023-05-01T01:40:58.795Z,49.64
2023-05-01T01:43:27.098Z,48.42
2023-05-01T01:46:03.733Z,48.51
2023-05-01T01:48:34.782Z,48.74
2023-05-01T01:51:06.575Z,49.59
2023-05-01T01:53:36.583Z,48.13
2023-05-01T01:56:08.596Z,47.35
2023-05-01T01:58:36.916Z,48.86
2023-05-01T02:01:06.367Z,48.94
2023-05-01T02:03:33.973Z,49.40
2023-05-01T02:06:01.883Z,50.25
2023-05-01T02:08:31.749Z,50.51
2023-05-01T02:11:01.965Z,49.29
2023-05-01T02:13:31.251Z,49.83
2023-05-01T02:16:03.269Z,50.18
2023-05-01T02:18:31.753Z,49.39
2023-05-01T02:21:01.115Z,49.96
2023-05-01T02:23:29.804Z,50.38
2023-05-01T02:25:58.712Z,49.93
2023-05-01T02:28:28.385Z,50.63
2023-05-01T02:30:55.110Z,49.55
2023-05-01T02:33:21.730Z,49.54
2023-05-01T02:35:48.476Z,49.88
2023-05-01T02:38:18.329Z,49.95
2023-05-01T02:40:50.591Z,49.36
2023-05-01T02:43:20.969Z,49.90
2023-05-01T02:45:49.340Z,49.17
2023-05-01T02:48:21.881Z,49.44
2023-05-01T02:50:50.085Z,48.97
2023-05-01T02:53:18.810Z,49.26
2023-05-01T02:55:50.615Z,50.56
2023-05-01T02:58:19.052Z,50.95
2023-05-01T03:00:48.592Z,51.23
2023-05-01T03:03:16.573Z,51.28
2023-05-01T03:05:43.333Z,48.96
2023-05-01T03:08:10.590Z,49.82
2023-05-01T03:10:40.798Z,50.74
2023-05-01T03:13:08.429Z,49.99
2023-05-01T03:15:35.075Z,49.68
2023-05-01T03:18:01.889Z,50.01
2023-05-01T03:20:29.798Z,50.60
2023-05-01T03:22:57.728Z,50.32
2023-05-01T03:25:25.946Z,50.66
2023-05-01T03:27:55.105Z,50.29
2023-05-01T03:30:22.702Z,49.36
2023-05-01T03:32:51.731Z,50.96
2023-05-01T03:35:23.899Z,50.38
2023-05-01T03:37:50.906Z,50.74
2023-05-01T03:40:37.488Z,48.64
2023-05-01T03:43:23.898Z,49.51
2023-05-01T03:45:52.563Z,51.68
2023-05-01T03:48:20.346Z,52.21
2023-05-01T03:50:47.106Z,52.25
2023-05-01T03:53:14.920Z,51.97
2023-05-01T03:55:41.903Z,51.95
2023-05-01T03:58:08.989Z,52.99
2023-05-01T04:00:35.718Z,52.89
2023-05-01T04:03:03.296Z,53.71
2023-05-01T04:05:32.103Z,53.21
2023-05-01T04:08:02.151Z,53.14
2023-05-01T04:10:28.924Z,53.53
2023-05-01T04:13:00.358Z,53.74
2023-05-01T04:15:27.712Z,53.89
2023-05-01T04:17:56.743Z,54.59
2023-05-01T04:20:23.898Z,54.62
2023-05-01T04:22:50.740Z,54.28
2023-05-01T04:25:17.812Z,54.57
2023-05-01T04:27:46.072Z,54.61
2023-05-01T04:30:14.632Z,55.15
2023-05-01T04:32:41.515Z,55.91
2023-05-01T04:35:09.615Z,55.73
2023-05-01T04:37:37.380Z,56.73
2023-05-01T04:40:04.565Z,55.99
2023-05-01T04:42:34.212Z,58.09
2023-05-01T04:45:04.030Z,57.72
2023-05-01T04:47:34.296Z,57.69
2023-05-01T04:50:01.265Z,58.39
2023-05-01T04:52:28.100Z,59.56
2023-05-01T04:54:59.132Z,58.89
2023-05-01T04:57:28.510Z,58.36
2023-05-01T04:59:55.600Z,58.21
2023-05-01T05:02:23.308Z,58.37
2023-05-01T05:04:50.496Z,59.57
2023-05-01T05:07:17.266Z,60.27
2023-05-01T05:10:07.882Z,59.23
2023-05-01T05:12:38.390Z,59.97
2023-05-01T05:15:06.114Z,60.31
2023-05-01T05:17:32.911Z,60.14
2023-05-01T05:19:59.792Z,60.04
2023-05-01T05:22:26.556Z,60.34
2023-05-01T05:25:13.192Z,60.78
2023-05-01T05:27:39.822Z,61.12
2023-05-01T05:30:07.311Z,60.85
2023-05-01T05:32:35.246Z,61.77
2023-05-01T05:35:02.592Z,61.91
2023-05-01T05:37:29.554Z,62.00
2023-05-01T05:39:57.064Z,62.48
2023-05-01T05:42:24.347Z,62.76
2023-05-01T05:44:51.222Z,62.16
2023-05-01T05:47:18.013Z,63.57
2023-05-01T05:49:44.682Z,62.13
2023-05-01T05:52:11.490Z,62.29
2023-05-01T05:54:38.970Z,63.74
2023-05-01T05:57:05.609Z,63.45
2023-05-01T05:59:33.172Z,63.15
2023-05-01T06:02:00.337Z,63.77
2023-05-01T06:04:27.071Z,62.98
2023-05-01T06:06:54.790Z,63.39
2023-05-01T06:09:21.835Z,63.27
2023-05-01T06:11:48.967Z,63.32
2023-05-01T06:14:17.023Z,63.41
2023-05-01T06:16:44.274Z,63.35
2023-05-01T06:19:12.213Z,63.73
2023-05-01T06:21:39.868Z,64.33
2023-05-01T06:24:06.836Z,63.77
2023-05-01T06:26:41.874Z,63.84
2023-05-01T06:29:08.617Z,65.27
2023-05-01T06:31:35.452Z,64.34
2023-05-01T06:34:02.325Z,65.10
2023-05-01T06:36:36.142Z,64.93
2023-05-01T06:39:02.857Z,64.29
2023-05-01T06:41:32.558Z,64.43
2023-05-01T06:43:59.492Z,63.63
2023-05-01T06:46:26.274Z,64.31
2023-05-01T06:48:53.047Z,63.82
2023-05-01T06:51:19.725Z,64.66
2023-05-01T06:53:46.385Z,64.45
2023-05-01T06:56:13.076Z,63.55
2023-05-01T06:58:39.940Z,63.56
2023-05-01T07:01:07.144Z,63.39
2023-05-01T07:03:33.965Z,64.11
2023-05-01T07:06:00.809Z,64.67
2023-05-01T07:08:28.310Z,64.70
2023-05-01T07:10:55.051Z,63.34
2023-05-01T07:13:21.765Z,63.97
2023-05-01T07:15:49.129Z,64.55
2023-05-01T07:18:17.129Z,64.42
2023-05-01T07:20:43.860Z,64.14
2023-05-01T07:23:10.624Z,63.95
2023-05-01T07:25:37.778Z,63.97
2023-05-01T07:28:08.268Z,63.73
2023-05-01T07:30:36.400Z,64.34
2023-05-01T07:33:03.461Z,64.25
2023-05-01T07:35:30.395Z,64.49
2023-05-01T07:37:57.089Z,64.95
2023-05-01T07:40:23.760Z,64.87
2023-05-01T07:42:53.133Z,64.86
2023-05-01T07:45:21.060Z,64.71
2023-05-01T07:47:48.063Z,64.26
2023-05-01T07:50:14.824Z,64.62
2023-05-01T07:52:41.437Z,64.58
2023-05-01T07:55:08.892Z,64.01
2023-05-01T07:57:36.279Z,64.33
2023-05-01T08:00:03.366Z,65.01
2023-05-01T08:02:43.073Z,64.54
2023-05-01T08:05:10.343Z,64.43
2023-05-01T08:07:37.261Z,64.41
2023-05-01T08:10:04.593Z,65.89
2023-05-01T08:12:31.804Z,65.03
2023-05-01T08:14:58.800Z,64.71
2023-05-01T08:17:25.808Z,65.13
2023-05-01T08:19:56.831Z,64.47
2023-05-01T08:22:24.133Z,65.01
2023-05-01T08:24:51.474Z,64.67
2023-05-01T08:27:20.369Z,67.03
2023-05-01T08:29:47.996Z,67.54
2023-05-01T08:32:15.786Z,67.23
2023-05-01T08:34:42.416Z,66.19
2023-05-01T08:37:09.271Z,66.01
2023-05-01T08:39:36.282Z,66.31
2023-05-01T08:42:06.784Z,65.50
2023-05-01T08:44:38.048Z,66.81
2023-05-01T08:47:27.790Z,69.10
2023-05-01T08:49:55.796Z,67.83
2023-05-01T08:52:23.843Z,68.36
2023-05-01T08:54:52.511Z,68.44
2023-05-01T08:57:20.727Z,69.29
2023-05-01T08:59:48.538Z,69.21
2023-05-01T09:02:16.078Z,68.98
2023-05-01T09:04:43.616Z,68.14
2023-05-01T09:07:10.512Z,69.29
2023-05-01T09:09:37.478Z,69.43
2023-05-01T09:12:24.640Z,69.50
2023-05-01T09:14:54.225Z,69.56
2023-05-01T09:17:22.505Z,70.43
2023-05-01T09:19:51.017Z,70.00
2023-05-01T09:22:19.123Z,69.52
2023-05-01T09:24:46.761Z,69.49
2023-05-01T09:27:14.754Z,67.86
2023-05-01T09:29:47.507Z,68.39
2023-05-01T09:32:19.411Z,67.97
2023-05-01T09:34:47.651Z,69.58
2023-05-01T09:37:29.362Z,71.52
2023-05-01T09:40:05.442Z,71.37
2023-05-01T09:42:35.012Z,70.87
2023-05-01T09:45:04.826Z,71.71
2023-05-01T09:47:34.153Z,71.84
2023-05-01T09:50:04.665Z,71.60
2023-05-01T09:52:33.971Z,70.73
2023-05-01T09:55:18.168Z,69.47
2023-05-01T09:57:46.752Z,68.75
2023-05-01T10:00:15.641Z,68.75
2023-05-01T10:02:46.172Z,69.30
2023-05-01T10:05:16.470Z,70.57
2023-05-01T10:08:03.848Z,70.90
2023-05-01T10:10:31.072Z,69.92
2023-05-01T10:13:15.585Z,68.74
2023-05-01T10:15:42.564Z,68.26
2023-05-01T10:18:12.090Z,70.81
2023-05-01T10:20:40.619Z,69.37
2023-05-01T10:23:07.969Z,68.77
2023-05-01T10:25:36.892Z,69.28
2023-05-01T10:28:04.751Z,70.60
2023-05-01T10:30:32.474Z,71.32
2023-05-01T10:33:00.072Z,70.34
2023-05-01T10:35:34.181Z,69.71
2023-05-01T10:38:03.034Z,69.19
2023-05-01T10:40:39.202Z,66.69
2023-05-01T10:43:30.876Z,69.71
2023-05-01T10:46:09.999Z,69.38
2023-05-01T10:48:39.899Z,68.37
2023-05-01T10:51:28.336Z,69.40
2023-05-01T10:54:13.956Z,67.81
2023-05-01T10:56:42.913Z,68.29
2023-05-01T10:59:10.578Z,68.64
2023-05-01T11:01:39.767Z,68.14
2023-05-01T11:04:27.937Z,69.23
2023-05-01T11:06:57.671Z,68.54
2023-05-01T11:09:54.477Z,66.13
2023-05-01T11:12:46.863Z,67.83
2023-05-01T11:15:29.558Z,66.60
2023-05-01T11:17:59.790Z,68.86
2023-05-01T11:20:26.500Z,69.12
2023-05-01T11:22:54.706Z,67.84
2023-05-01T11:25:27.237Z,69.88
2023-05-01T11:27:57.081Z,71.38
2023-05-01T11:30:24.420Z,69.97
2023-05-01T11:32:52.377Z,72.68
2023-05-01T11:35:21.079Z,71.66
2023-05-01T11:37:48.532Z,70.75
2023-05-01T11:40:41.322Z,69.95
2023-05-01T11:43:09.376Z,70.95
2023-05-01T11:45:37.836Z,72.72
2023-05-01T11:48:14.131Z,72.35
2023-05-01T11:50:40.868Z,72.83
2023-05-01T11:53:12.976Z,71.72
2023-05-01T11:55:40.459Z,70.56
2023-05-01T11:58:07.507Z,70.10
2023-05-01T12:00:37.487Z,70.56
2023-05-01T12:03:07.055Z,70.75
2023-05-01T12:05:37.442Z,72.84
2023-05-01T12:08:15.980Z,72.34
2023-05-01T12:10:44.341Z,72.48
2023-05-01T12:13:13.644Z,70.73
2023-05-01T12:15:50.113Z,70.16
2023-05-01T12:18:18.692Z,69.16
2023-05-01T12:20:48.738Z,69.86
2023-05-01T12:23:19.073Z,70.12
2023-05-01T12:25:46.746Z,67.04
2023-05-01T12:28:14.680Z,68.11
2023-05-01T12:30:42.723Z,68.75
2023-05-01T12:33:12.107Z,68.37
2023-05-01T12:35:40.402Z,68.81
2023-05-01T12:38:12.855Z,67.09
2023-05-01T12:40:41.147Z,68.86
2023-05-01T12:43:07.988Z,69.18
2023-05-01T12:45:43.599Z,69.83
2023-05-01T12:48:14.101Z,69.96
2023-05-01T12:50:41.636Z,68.54
2023-05-01T12:53:09.951Z,68.36
2023-05-01T12:55:51.949Z,68.09
2023-05-01T12:58:19.020Z,66.65
2023-05-01T13:00:48.736Z,67.24
2023-05-01T13:03:18.264Z,68.35
2023-05-01T13:06:02.615Z,66.40
2023-05-01T13:08:34.973Z,65.93
2023-05-01T13:11:13.672Z,66.57
2023-05-01T13:13:41.402Z,65.91
2023-05-01T13:16:12.289Z,66.46
2023-05-01T13:18:58.073Z,67.99
2023-05-01T13:21:25.368Z,66.65
2023-05-01T13:23:59.825Z,66.27
2023-05-01T13:26:33.542Z,67.07
2023-05-01T13:29:02.041Z,65.98
2023-05-01T13:31:29.799Z,65.42
2023-05-01T13:33:59.690Z,64.57
2023-05-01T13:36:32.880Z,64.71
2023-05-01T13:38:59.830Z,65.41
2023-05-01T13:41:27.525Z,66.42
2023-05-01T13:43:56.626Z,65.88
2023-05-01T13:46:25.681Z,62.75
2023-05-01T13:48:52.889Z,64.53
2023-05-01T13:51:22.928Z,62.97
2023-05-01T13:53:50.274Z,64.07
2023-05-01T13:56:16.947Z,66.12
2023-05-01T13:58:43.743Z,64.62
2023-05-01T14:01:21.499Z,63.15
2023-05-01T14:03:49.459Z,63.01
2023-05-01T14:06:18.790Z,63.44
2023-05-01T14:08:47.028Z,62.75
2023-05-01T14:11:14.786Z,62.97
2023-05-01T14:13:44.159Z,64.54
2023-05-01T14:16:19.975Z,63.61
2023-05-01T14:18:48.328Z,63.97
2023-05-01T14:21:20.959Z,64.39
2023-05-01T14:23:47.778Z,64.57
2023-05-01T14:26:18.894Z,64.50
2023-05-01T14:28:48.202Z,66.79
2023-05-01T14:31:29.478Z,63.78
2023-05-01T14:34:06.297Z,63.62
2023-05-01T14:36:33.198Z,64.08
2023-05-01T14:39:01.909Z,64.08
2023-05-01T14:41:30.053Z,63.33
2023-05-01T14:43:57.107Z,61.16
2023-05-01T14:46:30.941Z,62.30
2023-05-01T14:48:59.968Z,60.95
2023-05-01T14:51:27.820Z,62.67
2023-05-01T14:53:54.829Z,62.87
2023-05-01T14:56:21.766Z,64.70
2023-05-01T14:58:51.734Z,63.89
2023-05-01T15:01:19.485Z,63.89
2023-05-01T15:03:46.523Z,62.04
2023-05-01T15:06:13.450Z,64.33
2023-05-01T15:08:40.315Z,65.52
2023-05-01T15:11:07.599Z,64.34
2023-05-01T15:13:34.770Z,63.25
2023-05-01T15:16:01.563Z,63.03
2023-05-01T15:18:28.285Z,60.94
2023-05-01T15:20:55.539Z,61.37
2023-05-01T15:23:22.306Z,62.19
2023-05-01T15:25:50.639Z,60.70
2023-05-01T15:28:17.419Z,61.91
2023-05-01T15:30:46.733Z,61.92
2023-05-01T15:33:17.142Z,62.75
2023-05-01T15:35:45.744Z,61.38
2023-05-01T15:38:12.642Z,61.11
2023-05-01T15:40:39.256Z,62.43
2023-05-01T15:43:06.521Z,62.34
2023-05-01T15:45:33.677Z,62.04
2023-05-01T15:48:01.355Z,62.92
2023-05-01T15:50:28.290Z,62.61
2023-05-01T15:52:55.345Z,61.38
2023-05-01T15:55:22.408Z,61.25
2023-05-01T15:57:49.392Z,61.00
2023-05-01T16:00:21.813Z,61.14
2023-05-01T16:02:48.598Z,60.94
2023-05-01T16:05:18.937Z,58.88
2023-05-01T16:07:46.241Z,59.00
2023-05-01T16:10:12.953Z,60.57
2023-05-01T16:12:40.106Z,59.76
2023-05-01T16:15:07.360Z,59.19
2023-05-01T16:17:45.049Z,60.26
2023-05-01T16:20:13.326Z,61.16
2023-05-01T16:22:41.638Z,59.36
2023-05-01T16:25:10.518Z,58.73
2023-05-01T16:27:42.472Z,59.09
2023-05-01T16:30:10.012Z,59.14
2023-05-01T16:32:37.931Z,58.35
2023-05-01T16:35:05.780Z,58.36
2023-05-01T16:37:34.182Z,57.37
2023-05-01T16:40:01.889Z,58.08
2023-05-01T16:42:28.996Z,57.49
2023-05-01T16:44:57.164Z,56.39
2023-05-01T16:47:24.022Z,54.94
2023-05-01T16:49:52.365Z,55.40
2023-05-01T16:52:19.262Z,56.46
2023-05-01T16:54:46.068Z,56.54
2023-05-01T16:57:13.097Z,58.52
2023-05-01T16:59:39.776Z,58.37
2023-05-01T17:02:07.003Z,58.49
2023-05-01T17:04:34.109Z,57.86
2023-05-01T17:07:01.004Z,58.29
2023-05-01T17:09:27.732Z,58.66
2023-05-01T17:11:56.683Z,58.53
2023-05-01T17:14:26.118Z,58.01
2023-05-01T17:16:53.264Z,57.74
2023-05-01T17:19:20.098Z,58.16
2023-05-01T17:21:47.796Z,57.66
2023-05-01T17:24:14.756Z,58.69
2023-05-01T17:26:42.619Z,57.45
2023-05-01T17:29:10.346Z,57.60
2023-05-01T17:31:37.119Z,58.32
2023-05-01T17:34:04.329Z,59.09
2023-05-01T17:36:32.388Z,59.24
2023-05-01T17:39:01.364Z,58.64
2023-05-01T17:41:28.110Z,59.25
2023-05-01T17:43:55.450Z,58.77
2023-05-01T17:46:22.204Z,58.83
2023-05-01T17:48:51.306Z,58.76
2023-05-01T17:51:18.571Z,58.92
2023-05-01T17:53:46.530Z,59.55
2023-05-01T17:56:13.495Z,59.37
2023-05-01T17:58:40.988Z,58.63
2023-05-01T18:01:07.850Z,58.79
2023-05-01T18:03:47.236Z,58.46
2023-05-01T18:06:14.078Z,59.24
2023-05-01T18:08:41.430Z,58.83
2023-05-01T18:11:08.309Z,59.05
2023-05-01T18:13:41.268Z,60.44
2023-05-01T18:16:08.618Z,60.31
2023-05-01T18:18:35.657Z,61.18
2023-05-01T18:21:02.365Z,61.35
2023-05-01T18:23:29.170Z,61.81
2023-05-01T18:25:56.251Z,61.17
2023-05-01T18:28:23.104Z,60.76
2023-05-01T18:30:50.573Z,60.33
2023-05-01T18:33:18.047Z,61.13
2023-05-01T18:35:44.785Z,59.17
2023-05-01T18:38:11.706Z,59.70
2023-05-01T18:40:38.475Z,61.18
2023-05-01T18:43:06.724Z,59.86
2023-05-01T18:45:34.867Z,60.00
2023-05-01T18:48:03.195Z,59.47
2023-05-01T18:50:30.287Z,59.54
2023-05-01T18:52:57.080Z,59.22
2023-05-01T18:55:25.188Z,59.83
2023-05-01T18:57:52.207Z,60.77
2023-05-01T19:00:32.283Z,59.99
2023-05-01T19:02:59.318Z,60.74
2023-05-01T19:05:27.623Z,60.15
2023-05-01T19:07:58.996Z,60.24
2023-05-01T19:10:28.638Z,59.95
2023-05-01T19:12:55.392Z,60.08
2023-05-01T19:15:28.241Z,59.64
2023-05-01T19:17:58.318Z,59.96
2023-05-01T19:20:25.334Z,59.72
2023-05-01T19:22:52.174Z,59.49
2023-05-01T19:25:19.252Z,59.75
2023-05-01T19:27:46.734Z,59.85
2023-05-01T19:30:13.425Z,60.75
2023-05-01T19:32:40.453Z,59.74
2023-05-01T19:35:10.073Z,60.80
2023-05-01T19:37:37.159Z,60.62
2023-05-01T19:40:04.552Z,62.01
2023-05-01T19:42:31.585Z,62.77
2023-05-01T19:44:58.537Z,62.36
2023-05-01T19:47:26.327Z,63.01
2023-05-01T19:49:53.071Z,64.61
2023-05-01T19:52:19.720Z,64.31
2023-05-01T19:54:47.672Z,65.05
2023-05-01T19:57:14.424Z,65.11
2023-05-01T20:02:27.927Z,63.63
2023-05-01T20:04:54.947Z,65.19
2023-05-01T20:07:21.879Z,66.48
2023-05-01T20:09:48.850Z,66.80
2023-05-01T20:12:15.915Z,66.87
2023-05-01T20:14:42.675Z,66.21
2023-05-01T20:17:09.648Z,66.98
2023-05-01T20:19:39.614Z,66.40
2023-05-01T20:22:07.028Z,66.95
2023-05-01T20:24:34.607Z,65.94
2023-05-01T20:27:03.928Z,66.14
2023-05-01T20:29:30.623Z,67.18
2023-05-01T20:31:58.998Z,66.91
2023-05-01T20:34:25.941Z,65.91
2023-05-01T20:36:52.664Z,66.00
2023-05-01T20:39:19.454Z,67.53
2023-05-01T20:41:46.184Z,67.68
2023-05-01T20:44:16.819Z,67.94
2023-05-01T20:46:44.857Z,66.73
2023-05-01T20:49:15.053Z,67.93
2023-05-01T20:51:42.700Z,67.24
2023-05-01T20:54:09.416Z,67.14
2023-05-01T20:56:36.230Z,67.17
2023-05-01T20:59:03.895Z,66.85
2023-05-01T21:01:33.861Z,67.10
2023-05-01T21:04:01.011Z,65.70
2023-05-01T21:06:31.642Z,65.80
2023-05-01T21:09:01.507Z,66.88
2023-05-01T21:11:28.392Z,67.51
2023-05-01T21:13:57.757Z,67.60
2023-05-01T21:16:24.973Z,68.15
2023-05-01T21:18:51.592Z,67.19
2023-05-01T21:21:18.707Z,68.05
2023-05-01T21:23:51.284Z,68.47
2023-05-01T21:26:19.711Z,67.15
2023-05-01T21:28:46.596Z,65.77
2023-05-01T21:31:13.729Z,65.84
2023-05-01T21:33:43.271Z,65.18
2023-05-01T21:36:10.400Z,64.66
2023-05-01T21:38:37.212Z,65.06
2023-05-01T21:41:04.100Z,66.50
2023-05-01T21:43:34.787Z,66.77
2023-05-01T21:46:01.673Z,66.30
2023-05-01T21:48:32.939Z,65.91
2023-05-01T21:51:00.765Z,64.92
2023-05-01T21:53:28.879Z,64.06
2023-05-01T21:55:55.634Z,65.49
2023-05-01T21:58:22.258Z,65.05
2023-05-01T22:00:49.196Z,65.26
2023-05-01T22:03:18.092Z,64.27
2023-05-01T22:05:45.541Z,65.53
2023-05-01T22:08:12.368Z,65.61
2023-05-01T22:10:41.083Z,65.19
2023-05-01T22:13:07.843Z,64.01
2023-05-01T22:15:34.677Z,64.02
2023-05-01T22:18:01.567Z,63.38
2023-05-01T22:20:28.442Z,64.26
2023-05-01T22:22:55.373Z,63.62
2023-05-01T22:25:22.345Z,63.31
2023-05-01T22:27:49.013Z,62.73
2023-05-01T22:30:16.169Z,62.09
2023-05-01T22:32:42.897Z,62.13
2023-05-01T22:35:09.836Z,61.28
2023-05-01T22:37:36.554Z,60.73
2023-05-01T22:40:03.753Z,61.24
2023-05-01T22:42:30.738Z,61.28
2023-05-01T22:44:57.570Z,61.27
2023-05-01T22:47:24.447Z,61.48
2023-05-01T22:49:51.425Z,61.53
2023-05-01T22:52:18.263Z,61.97
2023-05-01T22:54:45.053Z,63.82
2023-05-01T22:57:12.113Z,62.86
2023-05-01T22:59:40.654Z,62.31
2023-05-01T23:02:08.685Z,61.75
2023-05-01T23:04:35.843Z,62.35
2023-05-01T23:07:02.493Z,62.41
2023-05-01T23:09:32.219Z,61.00
2023-05-01T23:11:59.109Z,59.86
2023-05-01T23:14:25.906Z,59.85
2023-05-01T23:16:52.656Z,58.94
2023-05-01T23:19:24.203Z,59.21
2023-05-01T23:22:01.977Z,58.21
2023-05-01T23:24:42.006Z,57.00
2023-05-01T23:27:08.985Z,58.43
2023-05-01T23:29:35.771Z,56.48
2023-05-01T23:32:02.909Z,58.98
2023-05-01T23:34:29.629Z,58.41
2023-05-01T23:36:56.372Z,57.40
2023-05-01T23:39:23.100Z,59.00
2023-05-01T23:41:50.564Z,60.48
2023-05-01T23:44:17.425Z,61.02
2023-05-01T23:46:44.232Z,60.90
2023-05-01T23:49:11.512Z,61.40
2023-05-01T23:51:38.326Z,62.30
2023-05-01T23:54:05.068Z,62.09
2023-05-01T23:56:31.893Z,61.52
2023-05-01T23:58:58.594Z,60.41
